sensor_id;sensor_type;location;lat;lon;timestamp;P1;durP1;ratioP1;P2;durP2;ratioP2
78648;SDS011;67962;47.310;9.642;2024-01-16T00:00:50;7.90;;;4.00;;
78648;SDS011;67962;47.310;9.642;2024-01-16T00:03:16;7.47;;;4.25;;
78648;SDS011;67962;47.310;9.642;2024-01-16T00:05:41;8.07;;;4.25;;
78648;SDS011;67962;47.310;9.642;2024-01-16T00:08:07;9.07;;;4.32;;
78648;SDS011;67962;47.310;9.642;2024-01-16T00:10:33;10.02;;;4.18;;
78648;SDS011;67962;47.310;9.642;2024-01-16T00:12:58;8.60;;;4.22;;
78648;SDS011;67962;47.310;9.642;2024-01-16T00:15:24;7.47;;;4.07;;
78648;SDS011;67962;47.310;9.642;2024-01-16T00:17:50;10.73;;;4.18;;
78648;SDS011;67962;47.310;9.642;2024-01-16T00:20:16;7.97;;;3.78;;
78648;SDS011;67962;47.310;9.642;2024-01-16T00:22:42;7.63;;;4.15;;
78648;SDS011;67962;47.310;9.642;2024-01-16T00:25:08;8.27;;;3.90;;
78648;SDS011;67962;47.310;9.642;2024-01-16T00:27:33;7.85;;;3.70;;
78648;SDS011;67962;47.310;9.642;2024-01-16T00:29:59;6.63;;;4.00;;
78648;SDS011;67962;47.310;9.642;2024-01-16T00:32:25;7.75;;;4.20;;
78648;SDS011;67962;47.310;9.642;2024-01-16T00:34:50;7.43;;;3.88;;
78648;SDS011;67962;47.310;9.642;2024-01-16T00:37:16;9.23;;;4.00;;
78648;SDS011;67962;47.310;9.642;2024-01-16T00:39:42;8.38;;;3.90;;
78648;SDS011;67962;47.310;9.642;2024-01-16T00:42:07;7.85;;;3.88;;
78648;SDS011;67962;47.310;9.642;2024-01-16T00:44:33;8.13;;;3.92;;
78648;SDS011;67962;47.310;9.642;2024-01-16T00:47:00;8.50;;;4.20;;
78648;SDS011;67962;47.310;9.642;2024-01-16T00:49:27;6.55;;;3.83;;
78648;SDS011;67962;47.310;9.642;2024-01-16T00:51:53;7.00;;;4.03;;
78648;SDS011;67962;47.310;9.642;2024-01-16T00:54:19;9.43;;;4.15;;
78648;SDS011;67962;47.310;9.642;2024-01-16T00:56:44;9.18;;;4.07;;
78648;SDS011;67962;47.310;9.642;2024-01-16T00:59:10;8.88;;;3.92;;
78648;SDS011;67962;47.310;9.642;2024-01-16T01:01:38;6.68;;;3.85;;
78648;SDS011;67962;47.310;9.642;2024-01-16T01:04:04;9.75;;;3.83;;
78648;SDS011;67962;47.310;9.642;2024-01-16T01:06:30;7.07;;;3.58;;
78648;SDS011;67962;47.310;9.642;2024-01-16T01:08:55;7.10;;;4.07;;
78648;SDS011;67962;47.310;9.642;2024-01-16T01:11:21;7.88;;;3.95;;
78648;SDS011;67962;47.310;9.642;2024-01-16T01:13:47;7.35;;;4.18;;
78648;SDS011;67962;47.310;9.642;2024-01-16T01:16:12;8.90;;;3.97;;
78648;SDS011;67962;47.310;9.642;2024-01-16T01:18:38;7.05;;;3.58;;
78648;SDS011;67962;47.310;9.642;2024-01-16T01:21:04;7.65;;;3.90;;
78648;SDS011;67962;47.310;9.642;2024-01-16T01:23:30;7.60;;;3.85;;
78648;SDS011;67962;47.310;9.642;2024-01-16T01:25:56;8.20;;;4.07;;
78648;SDS011;67962;47.310;9.642;2024-01-16T01:28:21;9.52;;;4.10;;
78648;SDS011;67962;47.310;9.642;2024-01-16T01:30:47;7.40;;;3.80;;
78648;SDS011;67962;47.310;9.642;2024-01-16T01:33:13;8.48;;;3.65;;
78648;SDS011;67962;47.310;9.642;2024-01-16T01:35:38;9.50;;;3.95;;
78648;SDS011;67962;47.310;9.642;2024-01-16T01:38:04;6.75;;;3.78;;
78648;SDS011;67962;47.310;9.642;2024-01-16T01:40:31;7.00;;;3.60;;
78648;SDS011;67962;47.310;9.642;2024-01-16T01:42:57;7.32;;;3.80;;
78648;SDS011;67962;47.310;9.642;2024-01-16T01:45:23;7.43;;;3.67;;
78648;SDS011;67962;47.310;9.642;2024-01-16T01:47:48;7.43;;;4.10;;
78648;SDS011;67962;47.310;9.642;2024-01-16T01:50:14;7.10;;;3.88;;
78648;SDS011;67962;47.310;9.642;2024-01-16T01:52:40;8.60;;;4.03;;
78648;SDS011;67962;47.310;9.642;2024-01-16T01:55:07;7.32;;;3.70;;
78648;SDS011;67962;47.310;9.642;2024-01-16T01:57:36;8.57;;;4.22;;
78648;SDS011;67962;47.310;9.642;2024-01-16T02:00:02;9.35;;;4.10;;
78648;SDS011;67962;47.310;9.642;2024-01-16T02:02:29;7.45;;;3.75;;
78648;SDS011;67962;47.310;9.642;2024-01-16T02:04:56;8.18;;;4.32;;
78648;SDS011;67962;47.310;9.642;2024-01-16T02:07:23;7.30;;;3.67;;
78648;SDS011;67962;47.310;9.642;2024-01-16T02:09:48;6.45;;;3.60;;
78648;SDS011;67962;47.310;9.642;2024-01-16T02:12:15;8.32;;;3.60;;
78648;SDS011;67962;47.310;9.642;2024-01-16T02:14:40;6.13;;;3.40;;
78648;SDS011;67962;47.310;9.642;2024-01-16T02:17:07;7.65;;;3.83;;
78648;SDS011;67962;47.310;9.642;2024-01-16T02:19:32;7.60;;;3.72;;
78648;SDS011;67962;47.310;9.642;2024-01-16T02:21:59;7.85;;;3.63;;
78648;SDS011;67962;47.310;9.642;2024-01-16T02:24:28;6.78;;;3.75;;
78648;SDS011;67962;47.310;9.642;2024-01-16T02:26:54;8.18;;;4.30;;
78648;SDS011;67962;47.310;9.642;2024-01-16T02:29:20;8.63;;;4.45;;
78648;SDS011;67962;47.310;9.642;2024-01-16T02:31:46;9.35;;;4.03;;
78648;SDS011;67962;47.310;9.642;2024-01-16T02:34:11;7.30;;;4.25;;
78648;SDS011;67962;47.310;9.642;2024-01-16T02:36:38;9.00;;;4.25;;
78648;SDS011;67962;47.310;9.642;2024-01-16T02:39:04;8.68;;;3.97;;
78648;SDS011;67962;47.310;9.642;2024-01-16T02:41:31;8.05;;;4.00;;
78648;SDS011;67962;47.310;9.642;2024-01-16T02:43:57;10.50;;;4.88;;
78648;SDS011;67962;47.310;9.642;2024-01-16T02:46:22;9.68;;;4.72;;
78648;SDS011;67962;47.310;9.642;2024-01-16T02:48:48;10.15;;;5.47;;
78648;SDS011;67962;47.310;9.642;2024-01-16T02:51:14;9.55;;;5.10;;
78648;SDS011;67962;47.310;9.642;2024-01-16T02:53:40;8.75;;;5.15;;
78648;SDS011;67962;47.310;9.642;2024-01-16T02:56:07;9.55;;;5.47;;
78648;SDS011;67962;47.310;9.642;2024-01-16T02:58:34;9.38;;;5.00;;
78648;SDS011;67962;47.310;9.642;2024-01-16T03:00:59;10.40;;;5.65;;
78648;SDS011;67962;47.310;9.642;2024-01-16T03:03:26;10.27;;;4.57;;
78648;SDS011;67962;47.310;9.642;2024-01-16T03:05:52;9.23;;;5.40;;
78648;SDS011;67962;47.310;9.642;2024-01-16T03:08:17;10.05;;;5.38;;
78648;SDS011;67962;47.310;9.642;2024-01-16T03:10:43;11.50;;;5.65;;
78648;SDS011;67962;47.310;9.642;2024-01-16T03:13:09;11.15;;;5.80;;
78648;SDS011;67962;47.310;9.642;2024-01-16T03:15:35;9.85;;;5.13;;
78648;SDS011;67962;47.310;9.642;2024-01-16T03:18:00;11.88;;;5.63;;
78648;SDS011;67962;47.310;9.642;2024-01-16T03:20:26;11.15;;;5.43;;
78648;SDS011;67962;47.310;9.642;2024-01-16T03:22:53;9.48;;;5.43;;
78648;SDS011;67962;47.310;9.642;2024-01-16T03:25:19;8.80;;;5.35;;
78648;SDS011;67962;47.310;9.642;2024-01-16T03:27:45;12.13;;;5.45;;
78648;SDS011;67962;47.310;9.642;2024-01-16T03:30:11;8.98;;;5.40;;
78648;SDS011;67962;47.310;9.642;2024-01-16T03:32:37;9.63;;;5.72;;
78648;SDS011;67962;47.310;9.642;2024-01-16T03:35:04;12.10;;;5.72;;
78648;SDS011;67962;47.310;9.642;2024-01-16T03:37:31;9.98;;;5.72;;
78648;SDS011;67962;47.310;9.642;2024-01-16T03:39:57;13.02;;;6.03;;
78648;SDS011;67962;47.310;9.642;2024-01-16T03:42:23;10.93;;;5.45;;
78648;SDS011;67962;47.310;9.642;2024-01-16T03:44:49;14.23;;;6.20;;
78648;SDS011;67962;47.310;9.642;2024-01-16T03:47:15;12.88;;;5.47;;
78648;SDS011;67962;47.310;9.642;2024-01-16T03:49:40;9.93;;;5.40;;
78648;SDS011;67962;47.310;9.642;2024-01-16T03:52:06;9.23;;;5.82;;
78648;SDS011;67962;47.310;9.642;2024-01-16T03:54:32;13.95;;;6.90;;
78648;SDS011;67962;47.310;9.642;2024-01-16T03:56:58;11.52;;;6.18;;
78648;SDS011;67962;47.310;9.642;2024-01-16T03:59:23;11.07;;;6.60;;
78648;SDS011;67962;47.310;9.642;2024-01-16T04:01:49;12.27;;;6.47;;
78648;SDS011;67962;47.310;9.642;2024-01-16T04:04:15;12.88;;;6.38;;
78648;SDS011;67962;47.310;9.642;2024-01-16T04:06:41;15.65;;;6.80;;
78648;SDS011;67962;47.310;9.642;2024-01-16T04:09:07;15.60;;;6.70;;
78648;SDS011;67962;47.310;9.642;2024-01-16T04:11:34;11.93;;;6.35;;
78648;SDS011;67962;47.310;9.642;2024-01-16T04:14:00;13.82;;;6.30;;
78648;SDS011;67962;47.310;9.642;2024-01-16T04:16:26;11.20;;;6.00;;
78648;SDS011;67962;47.310;9.642;2024-01-16T04:18:52;13.13;;;6.95;;
78648;SDS011;67962;47.310;9.642;2024-01-16T04:21:17;15.88;;;6.95;;
78648;SDS011;67962;47.310;9.642;2024-01-16T04:23:43;12.43;;;6.30;;
78648;SDS011;67962;47.310;9.642;2024-01-16T04:26:09;12.10;;;5.75;;
78648;SDS011;67962;47.310;9.642;2024-01-16T04:28:35;10.52;;;5.63;;
78648;SDS011;67962;47.310;9.642;2024-01-16T04:31:02;13.73;;;6.07;;
78648;SDS011;67962;47.310;9.642;2024-01-16T04:33:28;12.82;;;6.32;;
78648;SDS011;67962;47.310;9.642;2024-01-16T04:35:54;10.70;;;5.57;;
78648;SDS011;67962;47.310;9.642;2024-01-16T04:38:20;11.57;;;5.82;;
78648;SDS011;67962;47.310;9.642;2024-01-16T04:40:46;11.80;;;5.95;;
78648;SDS011;67962;47.310;9.642;2024-01-16T04:43:12;11.60;;;6.03;;
78648;SDS011;67962;47.310;9.642;2024-01-16T04:45:37;11.00;;;5.50;;
78648;SDS011;67962;47.310;9.642;2024-01-16T04:48:03;10.65;;;5.68;;
78648;SDS011;67962;47.310;9.642;2024-01-16T04:50:29;12.40;;;6.32;;
78648;SDS011;67962;47.310;9.642;2024-01-16T04:52:58;11.10;;;5.70;;
78648;SDS011;67962;47.310;9.642;2024-01-16T04:55:27;15.18;;;7.25;;
78648;SDS011;67962;47.310;9.642;2024-01-16T04:57:54;11.27;;;6.47;;
78648;SDS011;67962;47.310;9.642;2024-01-16T05:00:20;11.50;;;6.00;;
78648;SDS011;67962;47.310;9.642;2024-01-16T05:02:46;13.25;;;5.97;;
78648;SDS011;67962;47.310;9.642;2024-01-16T05:05:12;12.18;;;5.47;;
78648;SDS011;67962;47.310;9.642;2024-01-16T05:07:38;10.18;;;5.03;;
78648;SDS011;67962;47.310;9.642;2024-01-16T05:10:04;11.75;;;5.22;;
78648;SDS011;67962;47.310;9.642;2024-01-16T05:12:31;10.55;;;4.95;;
78648;SDS011;67962;47.310;9.642;2024-01-16T05:14:57;9.55;;;5.18;;
78648;SDS011;67962;47.310;9.642;2024-01-16T05:17:23;9.93;;;4.90;;
78648;SDS011;67962;47.310;9.642;2024-01-16T05:19:49;10.25;;;5.45;;
78648;SDS011;67962;47.310;9.642;2024-01-16T05:22:14;29.13;;;13.35;;
78648;SDS011;67962;47.310;9.642;2024-01-16T05:24:40;11.35;;;6.03;;
78648;SDS011;67962;47.310;9.642;2024-01-16T05:27:06;11.23;;;5.88;;
78648;SDS011;67962;47.310;9.642;2024-01-16T05:29:32;10.30;;;5.57;;
78648;SDS011;67962;47.310;9.642;2024-01-16T05:31:57;11.77;;;5.80;;
78648;SDS011;67962;47.310;9.642;2024-01-16T05:34:23;13.98;;;6.45;;
78648;SDS011;67962;47.310;9.642;2024-01-16T05:36:49;11.35;;;5.70;;
78648;SDS011;67962;47.310;9.642;2024-01-16T05:39:15;11.05;;;6.00;;
78648;SDS011;67962;47.310;9.642;2024-01-16T05:41:42;13.18;;;7.10;;
78648;SDS011;67962;47.310;9.642;2024-01-16T05:44:07;13.82;;;6.20;;
78648;SDS011;67962;47.310;9.642;2024-01-16T05:46:33;12.77;;;6.22;;
78648;SDS011;67962;47.310;9.642;2024-01-16T05:48:59;11.07;;;5.75;;
78648;SDS011;67962;47.310;9.642;2024-01-16T05:51:26;12.82;;;6.32;;
78648;SDS011;67962;47.310;9.642;2024-01-16T05:53:53;14.50;;;7.30;;
78648;SDS011;67962;47.310;9.642;2024-01-16T05:56:19;12.65;;;6.90;;
78648;SDS011;67962;47.310;9.642;2024-01-16T05:58:45;14.40;;;7.32;;
78648;SDS011;67962;47.310;9.642;2024-01-16T06:01:10;16.40;;;7.28;;
78648;SDS011;67962;47.310;9.642;2024-01-16T06:03:38;11.60;;;6.32;;
78648;SDS011;67962;47.310;9.642;2024-01-16T06:06:04;12.70;;;6.85;;
78648;SDS011;67962;47.310;9.642;2024-01-16T06:08:31;13.50;;;6.53;;
78648;SDS011;67962;47.310;9.642;2024-01-16T06:10:56;17.65;;;8.57;;
78648;SDS011;67962;47.310;9.642;2024-01-16T06:13:22;16.40;;;7.72;;
78648;SDS011;67962;47.310;9.642;2024-01-16T06:15:48;14.48;;;7.55;;
78648;SDS011;67962;47.310;9.642;2024-01-16T06:18:13;13.05;;;6.80;;
78648;SDS011;67962;47.310;9.642;2024-01-16T06:20:39;12.98;;;6.75;;
78648;SDS011;67962;47.310;9.642;2024-01-16T06:23:05;14.73;;;6.95;;
78648;SDS011;67962;47.310;9.642;2024-01-16T06:25:30;15.07;;;7.13;;
78648;SDS011;67962;47.310;9.642;2024-01-16T06:27:56;14.55;;;6.80;;
78648;SDS011;67962;47.310;9.642;2024-01-16T06:30:22;14.40;;;7.13;;
78648;SDS011;67962;47.310;9.642;2024-01-16T06:32:48;14.45;;;7.65;;
78648;SDS011;67962;47.310;9.642;2024-01-16T06:35:15;15.50;;;7.32;;
78648;SDS011;67962;47.310;9.642;2024-01-16T06:37:41;15.95;;;7.53;;
78648;SDS011;67962;47.310;9.642;2024-01-16T06:40:07;15.02;;;6.85;;
78648;SDS011;67962;47.310;9.642;2024-01-16T06:42:34;11.60;;;6.45;;
78648;SDS011;67962;47.310;9.642;2024-01-16T06:45:01;14.82;;;6.95;;
78648;SDS011;67962;47.310;9.642;2024-01-16T06:47:27;14.02;;;7.20;;
78648;SDS011;67962;47.310;9.642;2024-01-16T06:49:53;13.75;;;6.45;;
78648;SDS011;67962;47.310;9.642;2024-01-16T06:52:18;12.95;;;6.75;;
78648;SDS011;67962;47.310;9.642;2024-01-16T06:54:44;13.52;;;6.72;;
78648;SDS011;67962;47.310;9.642;2024-01-16T06:57:10;16.42;;;7.13;;
78648;SDS011;67962;47.310;9.642;2024-01-16T06:59:36;24.85;;;10.23;;
78648;SDS011;67962;47.310;9.642;2024-01-16T07:02:02;28.80;;;11.18;;
78648;SDS011;67962;47.310;9.642;2024-01-16T07:04:28;26.65;;;10.88;;
78648;SDS011;67962;47.310;9.642;2024-01-16T07:06:54;29.75;;;11.77;;
78648;SDS011;67962;47.310;9.642;2024-01-16T07:09:20;26.38;;;11.77;;
78648;SDS011;67962;47.310;9.642;2024-01-16T07:11:46;24.23;;;11.10;;
78648;SDS011;67962;47.310;9.642;2024-01-16T07:14:12;25.10;;;11.15;;
78648;SDS011;67962;47.310;9.642;2024-01-16T07:16:38;26.67;;;11.98;;
78648;SDS011;67962;47.310;9.642;2024-01-16T07:19:04;39.08;;;16.70;;
78648;SDS011;67962;47.310;9.642;2024-01-16T07:21:30;43.85;;;19.30;;
78648;SDS011;67962;47.310;9.642;2024-01-16T07:23:55;36.28;;;16.52;;
78648;SDS011;67962;47.310;9.642;2024-01-16T07:26:21;21.58;;;9.55;;
78648;SDS011;67962;47.310;9.642;2024-01-16T07:28:48;11.68;;;7.18;;
78648;SDS011;67962;47.310;9.642;2024-01-16T07:31:14;11.48;;;6.43;;
78648;SDS011;67962;47.310;9.642;2024-01-16T07:33:41;12.80;;;7.20;;
78648;SDS011;67962;47.310;9.642;2024-01-16T07:36:07;15.25;;;7.25;;
78648;SDS011;67962;47.310;9.642;2024-01-16T07:38:34;11.23;;;6.28;;
78648;SDS011;67962;47.310;9.642;2024-01-16T07:41:01;14.52;;;6.78;;
78648;SDS011;67962;47.310;9.642;2024-01-16T07:43:27;12.02;;;6.40;;
78648;SDS011;67962;47.310;9.642;2024-01-16T07:45:54;11.65;;;5.95;;
78648;SDS011;67962;47.310;9.642;2024-01-16T07:48:20;11.13;;;6.38;;
78648;SDS011;67962;47.310;9.642;2024-01-16T07:50:46;14.20;;;6.72;;
78648;SDS011;67962;47.310;9.642;2024-01-16T07:53:11;18.90;;;9.70;;
78648;SDS011;67962;47.310;9.642;2024-01-16T07:55:37;20.10;;;10.77;;
78648;SDS011;67962;47.310;9.642;2024-01-16T07:58:03;15.82;;;9.55;;
78648;SDS011;67962;47.310;9.642;2024-01-16T08:00:30;17.85;;;9.80;;
78648;SDS011;67962;47.310;9.642;2024-01-16T08:02:55;17.63;;;9.63;;
78648;SDS011;67962;47.310;9.642;2024-01-16T08:05:21;15.80;;;8.75;;
78648;SDS011;67962;47.310;9.642;2024-01-16T08:07:50;14.20;;;7.97;;
78648;SDS011;67962;47.310;9.642;2024-01-16T08:10:16;16.38;;;7.55;;
78648;SDS011;67962;47.310;9.642;2024-01-16T08:12:42;15.20;;;7.60;;
78648;SDS011;67962;47.310;9.642;2024-01-16T08:15:08;11.90;;;6.63;;
78648;SDS011;67962;47.310;9.642;2024-01-16T08:17:34;13.02;;;6.47;;
78648;SDS011;67962;47.310;9.642;2024-01-16T08:20:00;11.32;;;6.35;;
78648;SDS011;67962;47.310;9.642;2024-01-16T08:22:26;10.13;;;5.93;;
78648;SDS011;67962;47.310;9.642;2024-01-16T08:24:51;11.43;;;5.82;;
78648;SDS011;67962;47.310;9.642;2024-01-16T08:27:18;11.63;;;5.78;;
78648;SDS011;67962;47.310;9.642;2024-01-16T08:29:44;13.02;;;6.30;;
78648;SDS011;67962;47.310;9.642;2024-01-16T08:32:10;11.32;;;6.03;;
78648;SDS011;67962;47.310;9.642;2024-01-16T08:34:35;12.35;;;6.70;;
78648;SDS011;67962;47.310;9.642;2024-01-16T08:37:01;12.50;;;6.78;;
78648;SDS011;67962;47.310;9.642;2024-01-16T08:39:29;12.35;;;6.10;;
78648;SDS011;67962;47.310;9.642;2024-01-16T08:41:58;12.85;;;6.53;;
78648;SDS011;67962;47.310;9.642;2024-01-16T08:44:23;10.88;;;6.00;;
78648;SDS011;67962;47.310;9.642;2024-01-16T08:46:49;10.80;;;5.28;;
78648;SDS011;67962;47.310;9.642;2024-01-16T08:49:15;10.52;;;5.65;;
78648;SDS011;67962;47.310;9.642;2024-01-16T08:51:40;10.45;;;5.68;;
78648;SDS011;67962;47.310;9.642;2024-01-16T08:54:06;15.30;;;6.53;;
78648;SDS011;67962;47.310;9.642;2024-01-16T08:56:32;13.90;;;6.25;;
78648;SDS011;67962;47.310;9.642;2024-01-16T08:58:58;9.88;;;5.53;;
78648;SDS011;67962;47.310;9.642;2024-01-16T09:01:23;10.10;;;5.47;;
78648;SDS011;67962;47.310;9.642;2024-01-16T09:03:49;9.82;;;5.50;;
78648;SDS011;67962;47.310;9.642;2024-01-16T09:06:16;11.85;;;6.40;;
78648;SDS011;67962;47.310;9.642;2024-01-16T09:08:42;8.23;;;5.35;;
78648;SDS011;67962;47.310;9.642;2024-01-16T09:11:09;9.82;;;5.75;;
78648;SDS011;67962;47.310;9.642;2024-01-16T09:13:36;8.23;;;4.88;;
78648;SDS011;67962;47.310;9.642;2024-01-16T09:16:02;13.38;;;7.80;;
78648;SDS011;67962;47.310;9.642;2024-01-16T09:18:29;28.63;;;14.50;;
78648;SDS011;67962;47.310;9.642;2024-01-16T09:20:55;61.42;;;28.13;;
78648;SDS011;67962;47.310;9.642;2024-01-16T09:23:21;20.40;;;10.35;;
78648;SDS011;67962;47.310;9.642;2024-01-16T09:25:47;17.02;;;7.47;;
78648;SDS011;67962;47.310;9.642;2024-01-16T09:28:13;9.98;;;5.53;;
78648;SDS011;67962;47.310;9.642;2024-01-16T09:30:39;7.40;;;3.88;;
78648;SDS011;67962;47.310;9.642;2024-01-16T09:33:06;6.40;;;4.00;;
78648;SDS011;67962;47.310;9.642;2024-01-16T09:35:32;6.38;;;3.85;;
78648;SDS011;67962;47.310;9.642;2024-01-16T09:37:58;5.57;;;3.47;;
78648;SDS011;67962;47.310;9.642;2024-01-16T09:40:24;6.22;;;3.53;;
78648;SDS011;67962;47.310;9.642;2024-01-16T09:42:51;5.72;;;3.35;;
78648;SDS011;67962;47.310;9.642;2024-01-16T09:45:19;8.05;;;3.63;;
78648;SDS011;67962;47.310;9.642;2024-01-16T09:47:51;7.05;;;3.33;;
78648;SDS011;67962;47.310;9.642;2024-01-16T09:50:18;7.28;;;3.85;;
78648;SDS011;67962;47.310;9.642;2024-01-16T09:52:47;6.70;;;3.70;;
78648;SDS011;67962;47.310;9.642;2024-01-16T09:55:17;6.70;;;3.88;;
78648;SDS011;67962;47.310;9.642;2024-01-16T09:57:44;7.78;;;4.00;;
78648;SDS011;67962;47.310;9.642;2024-01-16T10:00:11;7.30;;;3.78;;
78648;SDS011;67962;47.310;9.642;2024-01-16T10:02:41;7.68;;;4.07;;
78648;SDS011;67962;47.310;9.642;2024-01-16T10:05:10;8.68;;;3.65;;
78648;SDS011;67962;47.310;9.642;2024-01-16T10:07:40;10.18;;;4.32;;
78648;SDS011;67962;47.310;9.642;2024-01-16T10:10:08;7.00;;;3.88;;
78648;SDS011;67962;47.310;9.642;2024-01-16T10:12:36;8.10;;;4.30;;
78648;SDS011;67962;47.310;9.642;2024-01-16T10:15:04;5.70;;;3.03;;
78648;SDS011;67962;47.310;9.642;2024-01-16T10:17:35;5.45;;;3.20;;
78648;SDS011;67962;47.310;9.642;2024-01-16T10:20:05;5.95;;;3.45;;
78648;SDS011;67962;47.310;9.642;2024-01-16T10:22:32;7.28;;;3.42;;
78648;SDS011;67962;47.310;9.642;2024-01-16T10:25:08;8.88;;;4.13;;
78648;SDS011;67962;47.310;9.642;2024-01-16T10:27:41;8.98;;;3.90;;
78648;SDS011;67962;47.310;9.642;2024-01-16T10:30:07;7.45;;;3.53;;
78648;SDS011;67962;47.310;9.642;2024-01-16T10:32:34;7.65;;;4.38;;
78648;SDS011;67962;47.310;9.642;2024-01-16T10:35:13;9.48;;;4.00;;
78648;SDS011;67962;47.310;9.642;2024-01-16T10:37:49;5.00;;;2.88;;
78648;SDS011;67962;47.310;9.642;2024-01-16T10:40:15;4.50;;;2.60;;
78648;SDS011;67962;47.310;9.642;2024-01-16T10:42:43;4.50;;;2.55;;
78648;SDS011;67962;47.310;9.642;2024-01-16T10:45:21;6.05;;;3.20;;
78648;SDS011;67962;47.310;9.642;2024-01-16T10:47:47;4.28;;;2.45;;
78648;SDS011;67962;47.310;9.642;2024-01-16T10:50:14;4.63;;;2.80;;
78648;SDS011;67962;47.310;9.642;2024-01-16T10:52:47;5.47;;;3.00;;
78648;SDS011;67962;47.310;9.642;2024-01-16T10:55:19;5.25;;;2.63;;
78648;SDS011;67962;47.310;9.642;2024-01-16T10:57:47;6.43;;;2.88;;
78648;SDS011;67962;47.310;9.642;2024-01-16T11:00:14;5.28;;;2.60;;
78648;SDS011;67962;47.310;9.642;2024-01-16T11:02:48;4.28;;;2.65;;
78648;SDS011;67962;47.310;9.642;2024-01-16T11:05:17;3.45;;;2.20;;
78648;SDS011;67962;47.310;9.642;2024-01-16T11:07:43;4.82;;;2.53;;
78648;SDS011;67962;47.310;9.642;2024-01-16T11:10:09;4.53;;;2.45;;
78648;SDS011;67962;47.310;9.642;2024-01-16T11:12:37;3.60;;;2.40;;
78648;SDS011;67962;47.310;9.642;2024-01-16T11:15:07;3.47;;;2.35;;
78648;SDS011;67962;47.310;9.642;2024-01-16T11:17:37;7.43;;;2.58;;
78648;SDS011;67962;47.310;9.642;2024-01-16T11:20:04;3.55;;;2.53;;
78648;SDS011;67962;47.310;9.642;2024-01-16T11:22:35;5.45;;;2.40;;
78648;SDS011;67962;47.310;9.642;2024-01-16T11:27:39;3.72;;;2.58;;
78648;SDS011;67962;47.310;9.642;2024-01-16T11:30:07;4.55;;;2.70;;
78648;SDS011;67962;47.310;9.642;2024-01-16T11:32:35;5.43;;;2.67;;
78648;SDS011;67962;47.310;9.642;2024-01-16T11:35:08;4.03;;;2.60;;
78648;SDS011;67962;47.310;9.642;2024-01-16T11:37:34;4.95;;;2.78;;
78648;SDS011;67962;47.310;9.642;2024-01-16T11:42:49;5.93;;;2.80;;
78648;SDS011;67962;47.310;9.642;2024-01-16T11:50:35;4.32;;;2.47;;
78648;SDS011;67962;47.310;9.642;2024-01-16T11:53:01;6.93;;;2.50;;
78648;SDS011;67962;47.310;9.642;2024-01-16T11:55:27;5.18;;;2.70;;
78648;SDS011;67962;47.310;9.642;2024-01-16T12:00:31;4.22;;;2.40;;
78648;SDS011;67962;47.310;9.642;2024-01-16T12:02:58;5.15;;;2.83;;
78648;SDS011;67962;47.310;9.642;2024-01-16T12:05:28;6.80;;;2.67;;
78648;SDS011;67962;47.310;9.642;2024-01-16T12:07:54;3.65;;;2.10;;
78648;SDS011;67962;47.310;9.642;2024-01-16T12:10:20;6.00;;;2.38;;
78648;SDS011;67962;47.310;9.642;2024-01-16T12:12:48;4.47;;;2.42;;
78648;SDS011;67962;47.310;9.642;2024-01-16T12:15:20;3.95;;;2.25;;
78648;SDS011;67962;47.310;9.642;2024-01-16T12:17:53;4.43;;;2.25;;
78648;SDS011;67962;47.310;9.642;2024-01-16T12:20:20;3.78;;;2.30;;
78648;SDS011;67962;47.310;9.642;2024-01-16T12:22:53;5.18;;;2.40;;
78648;SDS011;67962;47.310;9.642;2024-01-16T12:25:20;3.72;;;2.42;;
78648;SDS011;67962;47.310;9.642;2024-01-16T12:27:53;5.07;;;2.30;;
78648;SDS011;67962;47.310;9.642;2024-01-16T12:30:32;3.83;;;2.72;;
78648;SDS011;67962;47.310;9.642;2024-01-16T12:33:05;4.10;;;2.40;;
78648;SDS011;67962;47.310;9.642;2024-01-16T12:35:37;3.83;;;2.20;;
78648;SDS011;67962;47.310;9.642;2024-01-16T12:38:04;3.70;;;2.30;;
78648;SDS011;67962;47.310;9.642;2024-01-16T12:40:32;4.32;;;2.20;;
78648;SDS011;67962;47.310;9.642;2024-01-16T12:42:58;4.40;;;2.33;;
78648;SDS011;67962;47.310;9.642;2024-01-16T12:45:24;3.78;;;2.42;;
78648;SDS011;67962;47.310;9.642;2024-01-16T12:47:53;4.63;;;2.70;;
78648;SDS011;67962;47.310;9.642;2024-01-16T12:50:22;4.68;;;2.72;;
78648;SDS011;67962;47.310;9.642;2024-01-16T12:52:49;5.45;;;2.50;;
78648;SDS011;67962;47.310;9.642;2024-01-16T12:55:25;3.65;;;2.50;;
78648;SDS011;67962;47.310;9.642;2024-01-16T12:58:11;4.95;;;2.70;;
78648;SDS011;67962;47.310;9.642;2024-01-16T13:00:39;4.90;;;2.25;;
78648;SDS011;67962;47.310;9.642;2024-01-16T13:03:05;2.72;;;1.90;;
78648;SDS011;67962;47.310;9.642;2024-01-16T13:05:31;3.03;;;2.17;;
78648;SDS011;67962;47.310;9.642;2024-01-16T13:08:04;3.83;;;2.40;;
78648;SDS011;67962;47.310;9.642;2024-01-16T13:10:30;5.80;;;2.22;;
78648;SDS011;67962;47.310;9.642;2024-01-16T13:13:15;5.68;;;2.50;;
78648;SDS011;67962;47.310;9.642;2024-01-16T13:15:46;3.85;;;2.25;;
78648;SDS011;67962;47.310;9.642;2024-01-16T13:18:18;3.72;;;2.38;;
78648;SDS011;67962;47.310;9.642;2024-01-16T13:20:45;5.07;;;2.70;;
78648;SDS011;67962;47.310;9.642;2024-01-16T13:23:12;4.45;;;2.65;;
78648;SDS011;67962;47.310;9.642;2024-01-16T13:25:44;3.40;;;2.20;;
78648;SDS011;67962;47.310;9.642;2024-01-16T13:28:12;3.95;;;2.35;;
78648;SDS011;67962;47.310;9.642;2024-01-16T13:30:39;4.28;;;2.50;;
78648;SDS011;67962;47.310;9.642;2024-01-16T13:33:05;6.15;;;2.78;;
78648;SDS011;67962;47.310;9.642;2024-01-16T13:35:31;3.53;;;2.47;;
78648;SDS011;67962;47.310;9.642;2024-01-16T13:37:59;3.30;;;2.47;;
78648;SDS011;67962;47.310;9.642;2024-01-16T13:40:25;3.80;;;2.65;;
78648;SDS011;67962;47.310;9.642;2024-01-16T13:42:51;2.97;;;2.15;;
78648;SDS011;67962;47.310;9.642;2024-01-16T13:45:16;4.43;;;2.55;;
78648;SDS011;67962;47.310;9.642;2024-01-16T13:47:43;6.03;;;2.38;;
78648;SDS011;67962;47.310;9.642;2024-01-16T13:50:09;4.68;;;2.40;;
78648;SDS011;67962;47.310;9.642;2024-01-16T13:52:35;4.15;;;2.53;;
78648;SDS011;67962;47.310;9.642;2024-01-16T13:55:01;4.30;;;2.40;;
78648;SDS011;67962;47.310;9.642;2024-01-16T13:57:30;8.15;;;2.65;;
78648;SDS011;67962;47.310;9.642;2024-01-16T13:59:56;4.55;;;2.50;;
78648;SDS011;67962;47.310;9.642;2024-01-16T14:02:23;4.43;;;2.47;;
78648;SDS011;67962;47.310;9.642;2024-01-16T14:04:49;5.25;;;2.60;;
78648;SDS011;67962;47.310;9.642;2024-01-16T14:07:16;4.88;;;2.53;;
78648;SDS011;67962;47.310;9.642;2024-01-16T14:09:41;4.32;;;2.90;;
78648;SDS011;67962;47.310;9.642;2024-01-16T14:12:08;4.72;;;2.47;;
78648;SDS011;67962;47.310;9.642;2024-01-16T14:14:34;6.53;;;2.67;;
78648;SDS011;67962;47.310;9.642;2024-01-16T14:17:00;4.25;;;2.78;;
78648;SDS011;67962;47.310;9.642;2024-01-16T14:19:27;4.53;;;2.40;;
78648;SDS011;67962;47.310;9.642;2024-01-16T14:21:55;4.35;;;2.45;;
78648;SDS011;67962;47.310;9.642;2024-01-16T14:24:21;4.03;;;2.50;;
78648;SDS011;67962;47.310;9.642;2024-01-16T14:26:46;4.90;;;3.00;;
78648;SDS011;67962;47.310;9.642;2024-01-16T14:29:12;4.93;;;2.50;;
78648;SDS011;67962;47.310;9.642;2024-01-16T14:31:38;4.72;;;2.58;;
78648;SDS011;67962;47.310;9.642;2024-01-16T14:34:09;4.40;;;2.25;;
78648;SDS011;67962;47.310;9.642;2024-01-16T14:36:39;5.47;;;2.53;;
78648;SDS011;67962;47.310;9.642;2024-01-16T14:39:05;3.97;;;2.47;;
78648;SDS011;67962;47.310;9.642;2024-01-16T14:41:31;4.20;;;2.38;;
78648;SDS011;67962;47.310;9.642;2024-01-16T14:43:57;3.88;;;2.90;;
78648;SDS011;67962;47.310;9.642;2024-01-16T14:46:23;4.20;;;2.67;;
78648;SDS011;67962;47.310;9.642;2024-01-16T14:48:49;5.78;;;2.95;;
78648;SDS011;67962;47.310;9.642;2024-01-16T14:51:15;4.20;;;2.50;;